createdAt,value
2019-03-18T00:00:35.999Z,99887.46
2019-03-18T00:03:05.252Z,99899.14
2019-03-18T00:05:34.292Z,99890.82
2019-03-18T00:08:03.296Z,99897.51
2019-03-18T00:10:33.070Z,99900.44
2019-03-18T00:13:02.083Z,99897.51
2019-03-18T00:15:31.099Z,99899.94
2019-03-18T00:18:00.135Z,99899.89
2019-03-18T00:20:29.183Z,99909.52
2019-03-18T00:22:58.241Z,99903.15
2019-03-18T00:25:27.254Z,99915.02
2019-03-18T00:27:56.258Z,99920.22
2019-03-18T00:30:25.307Z,99938.69
2019-03-18T00:32:54.372Z,99937.97
2019-03-18T00:35:23.428Z,99938.72
2019-03-18T00:37:52.834Z,99942.84
2019-03-18T00:40:21.895Z,99942.13
2019-03-18T00:42:50.908Z,99936.34
2019-03-18T00:45:19.957Z,99950.75
2019-03-18T00:47:48.965Z,99940.30
2019-03-18T00:50:18.028Z,99945.60
2019-03-18T00:52:47.013Z,99947.00
2019-03-18T00:55:16.014Z,99951.83
2019-03-18T00:57:45.061Z,99943.04
2019-03-18T01:00:14.159Z,99942.23
2019-03-18T01:02:43.189Z,99940.02
2019-03-18T01:05:12.230Z,99948.47
2019-03-18T01:07:41.402Z,99947.44
2019-03-18T01:10:11.139Z,99934.39
2019-03-18T01:12:40.152Z,99930.53
2019-03-18T01:15:09.552Z,99947.73
2019-03-18T01:17:38.551Z,99937.15
2019-03-18T01:20:07.636Z,99937.15
2019-03-18T01:22:36.688Z,99934.69
2019-03-18T01:25:06.056Z,99936.75
2019-03-18T01:27:35.066Z,99926.23
2019-03-18T01:30:04.340Z,99935.88
2019-03-18T01:32:33.419Z,99940.08
2019-03-18T01:35:02.770Z,99945.64
2019-03-18T01:37:31.825Z,99949.10
2019-03-18T01:40:00.853Z,99952.23
2019-03-18T01:42:29.922Z,99962.50
2019-03-18T01:44:58.864Z,99947.45
2019-03-18T01:47:27.922Z,99940.43
2019-03-18T01:49:56.935Z,99949.25
2019-03-18T01:52:26.001Z,99941.30
2019-03-18T01:54:55.007Z,99954.77
2019-03-18T01:57:24.237Z,99958.90
2019-03-18T01:59:53.217Z,99961.45
2019-03-18T02:02:22.229Z,99955.84
2019-03-18T02:04:51.632Z,99969.90
2019-03-18T02:07:20.633Z,99974.83
2019-03-18T02:09:49.649Z,99974.95
2019-03-18T02:12:18.702Z,99978.41
2019-03-18T02:14:47.718Z,99985.16
2019-03-18T02:17:17.065Z,99982.02
2019-03-18T02:19:46.203Z,99980.58
2019-03-18T02:22:15.324Z,99988.90
2019-03-18T02:24:44.332Z,99983.22
2019-03-18T02:27:13.306Z,99987.56
2019-03-18T02:29:42.633Z,99990.17
2019-03-18T02:32:12.036Z,99981.96
2019-03-18T02:34:41.093Z,99988.22
2019-03-18T02:37:10.155Z,99995.34
2019-03-18T02:39:39.080Z,99988.51
2019-03-18T02:42:08.139Z,99988.34
2019-03-18T02:44:37.172Z,99979.00
2019-03-18T02:47:06.182Z,99971.16
2019-03-18T02:49:35.239Z,99981.27
2019-03-18T02:52:04.242Z,99976.56
2019-03-18T02:54:33.287Z,99994.42
2019-03-18T02:57:02.373Z,100006.51
2019-03-18T02:59:31.384Z,100025.16
2019-03-18T03:02:00.387Z,100018.67
2019-03-18T03:04:29.445Z,100007.38
2019-03-18T03:06:58.486Z,100013.78
2019-03-18T03:09:27.521Z,100010.08
2019-03-18T03:11:56.537Z,100004.70
2019-03-18T03:14:25.596Z,99998.88
2019-03-18T03:16:55.077Z,99996.38
2019-03-18T03:19:24.041Z,100004.27
2019-03-18T03:21:53.054Z,99995.34
2019-03-18T03:24:22.046Z,100007.87
2019-03-18T03:26:51.110Z,100020.45
2019-03-18T03:29:20.170Z,100048.19
2019-03-18T03:31:49.222Z,100026.25
2019-03-18T03:34:18.313Z,100022.28
2019-03-18T03:36:47.304Z,100034.17
2019-03-18T03:39:16.320Z,100017.88
2019-03-18T03:41:45.398Z,100025.98
2019-03-18T03:44:14.411Z,100036.22
2019-03-18T03:46:44.197Z,100039.61
2019-03-18T03:49:13.242Z,100032.13
2019-03-18T03:51:42.262Z,100046.02
2019-03-18T03:54:11.309Z,100035.92
2019-03-18T03:56:40.330Z,100026.98
2019-03-18T03:59:09.715Z,100031.13
2019-03-18T04:01:38.732Z,100044.13
2019-03-18T04:04:07.837Z,100047.95
2019-03-18T04:06:36.729Z,100040.77
2019-03-18T04:09:07.273Z,100046.50
2019-03-18T04:11:36.620Z,100061.56
2019-03-18T04:14:05.831Z,100052.26
2019-03-18T04:16:34.921Z,100063.47
2019-03-18T04:19:03.950Z,100063.47
2019-03-18T04:21:33.024Z,100050.89
2019-03-18T04:24:02.041Z,100066.97
2019-03-18T04:26:31.287Z,100068.63
2019-03-18T04:29:00.272Z,100060.19
2019-03-18T04:31:29.297Z,100074.89
2019-03-18T04:33:58.233Z,100060.86
2019-03-18T04:36:27.303Z,100083.88
2019-03-18T04:38:56.364Z,100091.45
2019-03-18T04:41:25.282Z,100084.28
2019-03-18T04:43:54.287Z,100096.92
2019-03-18T04:46:23.311Z,100093.53
2019-03-18T04:48:52.327Z,100099.39
2019-03-18T04:51:21.370Z,100092.53
2019-03-18T04:53:50.397Z,100100.55
2019-03-18T04:56:19.450Z,100092.50
2019-03-18T04:58:48.497Z,100099.20
2019-03-18T05:01:17.524Z,100094.55
2019-03-18T05:03:46.804Z,100093.74
2019-03-18T05:06:15.871Z,100096.96
2019-03-18T05:08:44.882Z,100123.48
2019-03-18T05:11:13.933Z,100107.19
2019-03-18T05:13:42.844Z,100128.71
2019-03-18T05:16:11.893Z,100136.31
2019-03-18T05:18:40.865Z,100142.75
2019-03-18T05:21:09.934Z,100136.97
2019-03-18T05:23:38.942Z,100155.00
2019-03-18T05:26:07.996Z,100123.24
2019-03-18T05:28:37.034Z,100109.94
2019-03-18T05:31:06.138Z,100128.47
2019-03-18T05:33:35.154Z,100131.13
2019-03-18T05:36:04.175Z,100128.55
2019-03-18T05:38:33.185Z,100139.47
2019-03-18T05:41:02.209Z,100136.08
2019-03-18T05:43:31.221Z,100137.71
2019-03-18T05:46:00.293Z,100137.73
2019-03-18T05:48:29.230Z,100138.12
2019-03-18T05:50:58.306Z,100142.67
2019-03-18T05:53:27.662Z,100142.55
2019-03-18T05:55:56.697Z,100146.52
2019-03-18T05:58:25.772Z,100151.78
2019-03-18T06:00:54.721Z,100154.20
2019-03-18T06:03:23.741Z,100167.19
2019-03-18T06:05:52.832Z,100177.68
2019-03-18T06:08:21.886Z,100175.48
2019-03-18T06:10:50.897Z,100181.02
2019-03-18T06:13:20.095Z,100191.98
2019-03-18T06:15:49.038Z,100201.58
2019-03-18T06:18:18.086Z,100201.58
2019-03-18T06:20:47.110Z,100204.05
2019-03-18T06:23:16.442Z,100204.77
2019-03-18T06:25:45.530Z,100200.52
2019-03-18T06:28:14.546Z,100208.89
2019-03-18T06:30:43.915Z,100200.47
2019-03-18T06:33:13.287Z,100205.52
2019-03-18T06:35:42.352Z,100213.77
2019-03-18T06:38:11.298Z,100213.03
2019-03-18T06:40:40.372Z,100219.41
2019-03-18T06:43:09.273Z,100219.61
2019-03-18T06:45:38.292Z,100212.02
2019-03-18T06:48:09.220Z,100215.78
2019-03-18T06:50:38.429Z,100226.95
2019-03-18T06:53:07.376Z,100228.62
2019-03-18T06:55:36.384Z,100231.55
2019-03-18T06:58:05.436Z,100233.19
2019-03-18T07:00:34.450Z,100230.52
2019-03-18T07:03:03.527Z,100246.91
2019-03-18T07:05:32.542Z,100248.28
2019-03-18T07:08:01.568Z,100256.38
2019-03-18T07:10:30.633Z,100251.40
2019-03-18T07:12:59.679Z,100263.13
2019-03-18T07:15:28.749Z,100266.70
2019-03-18T07:17:57.807Z,100270.55
2019-03-18T07:20:27.173Z,100262.95
2019-03-18T07:22:56.405Z,100275.66
2019-03-18T07:25:25.422Z,100282.54
2019-03-18T07:27:54.429Z,100282.47
2019-03-18T07:30:23.470Z,100280.73
2019-03-18T07:32:52.807Z,100296.64
2019-03-18T07:35:21.895Z,100292.64
2019-03-18T07:37:50.943Z,100290.60
2019-03-18T07:40:19.984Z,100302.77
2019-03-18T07:42:49.034Z,100301.19
2019-03-18T07:45:18.080Z,100303.91
2019-03-18T07:47:47.097Z,100300.98
2019-03-18T07:50:16.369Z,100312.83
2019-03-18T07:52:45.416Z,100319.63
2019-03-18T07:55:14.444Z,100327.47
2019-03-18T07:57:43.518Z,100314.36
2019-03-18T08:00:12.575Z,100327.38
2019-03-18T08:02:41.999Z,100347.27
2019-03-18T08:05:11.233Z,100343.66
2019-03-18T08:07:40.238Z,100351.33
2019-03-18T08:10:09.540Z,100361.55
2019-03-18T08:12:38.885Z,100360.19
2019-03-18T08:15:07.936Z,100368.23
2019-03-18T08:17:37.012Z,100359.64
2019-03-18T08:20:06.751Z,100361.59
2019-03-18T08:22:35.765Z,100367.62
2019-03-18T08:25:05.188Z,100375.53
2019-03-18T08:27:34.144Z,100374.45
2019-03-18T08:30:03.215Z,100380.41
2019-03-18T08:32:32.270Z,100375.08
2019-03-18T08:35:01.246Z,100382.42
2019-03-18T08:37:30.257Z,100394.66
2019-03-18T08:39:59.269Z,100386.73
2019-03-18T08:42:28.585Z,100413.94
2019-03-18T08:44:57.531Z,100410.13
2019-03-18T08:47:26.591Z,100418.16
2019-03-18T08:49:55.594Z,100424.63
2019-03-18T08:52:24.640Z,100432.38
2019-03-18T08:54:53.719Z,100439.58
2019-03-18T08:57:22.745Z,100446.13
2019-03-18T08:59:51.765Z,100459.89
2019-03-18T09:02:20.822Z,100457.94
2019-03-18T09:04:50.762Z,100453.17
2019-03-18T09:07:19.813Z,100469.09
2019-03-18T09:09:49.358Z,100488.52
2019-03-18T09:12:18.377Z,100499.25
2019-03-18T09:14:47.401Z,100489.44
2019-03-18T09:17:16.458Z,100493.75
2019-03-18T09:19:45.795Z,100499.64
2019-03-18T09:22:14.808Z,100507.95
2019-03-18T09:24:43.865Z,100513.35
2019-03-18T09:27:13.147Z,100524.72
2019-03-18T09:29:42.598Z,100507.22
2019-03-18T09:32:11.608Z,100515.31
2019-03-18T09:34:40.617Z,100507.95
2019-03-18T09:37:09.688Z,100528.69
2019-03-18T09:39:38.691Z,100511.05
2019-03-18T09:42:07.770Z,100517.09
2019-03-18T09:44:36.826Z,100541.13
2019-03-18T09:47:05.812Z,100556.44
2019-03-18T09:49:34.819Z,100540.66
2019-03-18T09:52:03.892Z,100538.48
2019-03-18T09:54:32.853Z,100541.49
2019-03-18T09:57:01.878Z,100550.88
2019-03-18T09:59:31.239Z,100570.79
2019-03-18T10:02:00.264Z,100588.12
2019-03-18T10:04:29.244Z,100585.47
2019-03-18T10:06:58.293Z,100554.52
2019-03-18T10:09:27.267Z,100578.37
2019-03-18T10:11:56.258Z,100581.04
2019-03-18T10:14:25.324Z,100598.07
2019-03-18T10:16:54.336Z,100596.37
2019-03-18T10:19:33.101Z,100607.34
2019-03-18T10:21:54.175Z,100613.67
2019-03-18T10:24:23.226Z,100609.03
2019-03-18T10:26:52.281Z,100616.80
2019-03-18T10:29:21.332Z,100639.64
2019-03-18T10:31:50.415Z,100611.27
2019-03-18T10:34:19.789Z,100650.92
2019-03-18T10:36:48.804Z,100667.00
2019-03-18T10:39:17.875Z,100649.34
2019-03-18T10:41:46.873Z,100659.52
2019-03-18T10:44:15.863Z,100655.17
2019-03-18T10:46:44.887Z,100644.12
2019-03-18T10:49:15.206Z,100639.28
2019-03-18T10:51:44.168Z,100662.45
2019-03-18T10:54:13.271Z,100653.30
2019-03-18T10:56:42.248Z,100671.83
2019-03-18T10:59:11.294Z,100676.92
2019-03-18T11:01:40.239Z,100671.13
2019-03-18T11:04:09.311Z,100674.87
2019-03-18T11:06:38.354Z,100676.97
2019-03-18T11:09:08.115Z,100668.83
2019-03-18T11:11:37.738Z,100675.78
2019-03-18T11:14:06.786Z,100677.52
2019-03-18T11:16:35.836Z,100671.90
2019-03-18T11:19:04.847Z,100675.26
2019-03-18T11:21:33.888Z,100674.47
2019-03-18T11:24:03.237Z,100676.28
2019-03-18T11:26:32.301Z,100683.52
2019-03-18T11:29:01.348Z,100690.12
2019-03-18T11:31:30.285Z,100703.44
2019-03-18T11:33:59.301Z,100707.70
2019-03-18T11:36:31.493Z,100709.30
2019-03-18T11:38:59.413Z,100711.22
2019-03-18T11:41:28.425Z,100717.67
2019-03-18T11:43:58.076Z,100732.17
2019-03-18T11:46:27.138Z,100727.75
2019-03-18T11:48:56.144Z,100740.62
2019-03-18T11:51:25.148Z,100748.16
2019-03-18T11:53:54.535Z,100745.61
2019-03-18T11:56:23.815Z,100747.23
2019-03-18T11:58:52.873Z,100769.06
2019-03-18T12:01:21.913Z,100764.69
2019-03-18T12:03:50.922Z,100758.11
2019-03-18T12:06:20.022Z,100766.88
2019-03-18T12:08:48.965Z,100770.42
2019-03-18T12:11:17.951Z,100773.41
2019-03-18T12:13:47.320Z,100780.47
2019-03-18T12:16:16.371Z,100771.89
2019-03-18T12:18:45.312Z,100790.16
2019-03-18T12:21:16.034Z,100789.90
2019-03-18T12:23:45.550Z,100798.99
2019-03-18T12:26:14.685Z,100787.57
2019-03-18T12:28:43.560Z,100812.01
2019-03-18T12:31:12.611Z,100807.09
2019-03-18T12:33:42.003Z,100811.51
2019-03-18T12:36:11.188Z,100814.08
2019-03-18T12:38:40.242Z,100800.75
2019-03-18T12:41:09.316Z,100820.64
2019-03-18T12:43:38.728Z,100841.06
2019-03-18T12:46:07.741Z,100827.08
2019-03-18T12:48:36.791Z,100843.55
2019-03-18T12:51:05.866Z,100846.83
2019-03-18T12:53:34.876Z,100854.69
2019-03-18T12:56:03.950Z,100856.66
2019-03-18T12:58:32.971Z,100857.37
2019-03-18T13:01:12.135Z,100878.44
2019-03-18T13:03:32.698Z,100874.77
2019-03-18T13:06:01.767Z,100863.41
2019-03-18T13:08:30.853Z,100876.68
2019-03-18T13:10:59.885Z,100861.19
2019-03-18T13:13:28.987Z,100885.98
2019-03-18T13:15:58.296Z,100887.02
2019-03-18T13:18:27.319Z,100900.43
2019-03-18T13:21:07.309Z,100900.68
2019-03-18T13:23:27.150Z,100908.19
2019-03-18T13:25:56.164Z,100895.45
2019-03-18T13:28:25.213Z,100883.69
2019-03-18T13:30:54.233Z,100891.28
2019-03-18T13:33:23.273Z,100896.75
2019-03-18T13:35:52.305Z,100922.48
2019-03-18T13:38:21.686Z,100924.45
2019-03-18T13:40:50.704Z,100935.22
2019-03-18T13:43:19.685Z,100939.52
2019-03-18T13:45:55.145Z,100932.77
2019-03-18T13:48:19.533Z,100937.75
2019-03-18T13:50:48.532Z,100938.19
2019-03-18T13:53:17.590Z,100942.37
2019-03-18T13:55:46.648Z,100942.63
2019-03-18T13:58:15.724Z,100956.72
2019-03-18T14:00:44.761Z,100963.06
2019-03-18T14:03:13.860Z,100942.97
2019-03-18T14:05:42.867Z,100952.53
2019-03-18T14:08:11.979Z,100963.41
2019-03-18T14:10:41.124Z,100987.98
2019-03-18T14:13:10.133Z,100990.81
2019-03-18T14:15:39.219Z,100995.09
2019-03-18T14:18:08.327Z,100995.44
2019-03-18T14:20:37.355Z,101005.86
2019-03-18T14:23:06.754Z,101002.23
2019-03-18T14:25:36.166Z,101023.50
2019-03-18T14:28:05.167Z,101027.35
2019-03-18T14:30:34.184Z,101030.37
2019-03-18T14:33:03.237Z,101029.58
2019-03-18T14:35:32.267Z,101049.78
2019-03-18T14:38:01.353Z,101044.36
2019-03-18T14:40:30.405Z,101054.17
2019-03-18T14:42:59.461Z,101048.05
2019-03-18T14:45:28.498Z,101035.24
2019-03-18T14:47:57.554Z,101057.97
2019-03-18T14:50:26.598Z,101037.16
2019-03-18T14:52:55.773Z,101060.61
2019-03-18T14:55:24.825Z,101066.88
2019-03-18T14:57:54.154Z,101063.50
2019-03-18T15:00:23.255Z,101046.45
2019-03-18T15:02:52.275Z,101059.16
2019-03-18T15:05:21.320Z,101050.36
2019-03-18T15:07:50.330Z,101050.77
2019-03-18T15:10:19.414Z,101043.16
2019-03-18T15:12:48.435Z,101053.73
2019-03-18T15:15:17.914Z,101066.00
2019-03-18T15:17:46.987Z,101073.62
2019-03-18T15:20:16.089Z,101079.05
2019-03-18T15:22:45.156Z,101084.07
2019-03-18T15:25:16.513Z,101108.06
2019-03-18T15:27:45.563Z,101110.91
2019-03-18T15:30:16.594Z,101120.06
2019-03-18T15:32:45.557Z,101136.46
2019-03-18T15:35:14.627Z,101142.23
2019-03-18T15:37:44.003Z,101139.61
2019-03-18T15:40:14.360Z,101151.50
2019-03-18T15:42:43.436Z,101128.69
2019-03-18T15:45:13.177Z,101141.30
2019-03-18T15:47:42.230Z,101144.54
2019-03-18T15:50:13.453Z,101156.23
2019-03-18T15:52:42.460Z,101163.98
2019-03-18T15:55:11.634Z,101180.73
2019-03-18T15:57:40.815Z,101175.81
2019-03-18T16:00:11.869Z,101189.34
2019-03-18T16:02:40.923Z,101172.45
2019-03-18T16:05:10.514Z,101188.47
2019-03-18T16:07:39.593Z,101193.64
2019-03-18T16:10:09.351Z,101186.83
2019-03-18T16:12:38.437Z,101187.66
2019-03-18T16:15:08.088Z,101204.17
2019-03-18T16:17:37.123Z,101196.06
2019-03-18T16:20:07.714Z,101194.84
2019-03-18T16:22:36.726Z,101213.45
2019-03-18T16:25:06.106Z,101210.13
2019-03-18T16:27:35.274Z,101210.98
2019-03-18T16:30:05.090Z,101203.42
2019-03-18T16:32:34.410Z,101211.42
2019-03-18T16:35:03.467Z,101228.75
2019-03-18T16:37:32.477Z,101232.95
2019-03-18T16:40:01.999Z,101239.70
2019-03-18T16:42:31.035Z,101249.41
2019-03-18T16:45:00.356Z,101251.08
2019-03-18T16:47:31.400Z,101257.42
2019-03-18T16:50:00.276Z,101258.21
2019-03-18T16:52:35.587Z,101253.13
2019-03-18T16:55:00.127Z,101267.49
2019-03-18T16:57:29.397Z,101272.97
2019-03-18T16:59:58.458Z,101275.50
2019-03-18T17:02:27.634Z,101291.58
2019-03-18T17:04:57.294Z,101289.90
2019-03-18T17:07:26.318Z,101299.60
2019-03-18T17:09:55.349Z,101297.50
2019-03-18T17:12:24.367Z,101303.00
2019-03-18T17:14:53.370Z,101304.70
2019-03-18T17:17:22.770Z,101316.11
2019-03-18T17:19:51.731Z,101323.28
2019-03-18T17:22:20.781Z,101312.73
2019-03-18T17:24:49.900Z,101329.20
2019-03-18T17:27:18.948Z,101332.59
2019-03-18T17:29:47.969Z,101327.95
2019-03-18T17:32:17.106Z,101330.48
2019-03-18T17:34:46.128Z,101337.23
2019-03-18T17:37:15.463Z,101337.66
2019-03-18T17:39:44.506Z,101343.15
2019-03-18T17:42:13.655Z,101349.90
2019-03-18T17:44:42.706Z,101352.84
2019-03-18T17:47:11.777Z,101352.43
2019-03-18T17:49:40.726Z,101362.13
2019-03-18T17:52:09.785Z,101357.03
2019-03-18T17:54:38.725Z,101370.48
2019-03-18T17:57:09.944Z,101380.61
2019-03-18T17:59:38.916Z,101383.55
2019-03-18T18:02:07.931Z,101379.33
2019-03-18T18:04:36.986Z,101383.13
2019-03-18T18:07:05.994Z,101394.08
2019-03-18T18:09:35.404Z,101395.34
2019-03-18T18:12:04.490Z,101399.13
2019-03-18T18:14:33.528Z,101410.09
2019-03-18T18:17:02.576Z,101411.37
2019-03-18T18:19:31.597Z,101423.59
2019-03-18T18:22:00.916Z,101427.81
2019-03-18T18:24:29.971Z,101436.64
2019-03-18T18:26:59.037Z,101441.27
2019-03-18T18:29:28.054Z,101452.22
2019-03-18T18:31:57.084Z,101454.73
2019-03-18T18:34:26.177Z,101457.27
2019-03-18T18:36:55.180Z,101451.36
2019-03-18T18:39:24.188Z,101463.18
2019-03-18T18:41:53.237Z,101460.23
2019-03-18T18:44:22.252Z,101463.19
2019-03-18T18:46:51.687Z,101475.84
2019-03-18T18:49:20.690Z,101472.88
2019-03-18T18:51:49.718Z,101473.71
2019-03-18T18:54:18.696Z,101482.57
2019-03-18T18:56:47.781Z,101489.73
2019-03-18T18:59:18.570Z,101502.75
2019-03-18T19:01:47.541Z,101502.35
2019-03-18T19:04:16.589Z,101516.30
2019-03-18T19:06:45.619Z,101527.27
2019-03-18T19:09:14.639Z,101530.22
2019-03-18T19:11:43.690Z,101533.19
2019-03-18T19:14:12.703Z,101540.77
2019-03-18T19:16:41.683Z,101518.84
2019-03-18T19:19:10.698Z,101522.18
2019-03-18T19:21:39.747Z,101530.17
2019-03-18T19:24:08.762Z,101528.05
2019-03-18T19:26:38.065Z,101544.05
2019-03-18T19:29:07.109Z,101536.02
2019-03-18T19:31:36.214Z,101543.59
2019-03-18T19:34:05.266Z,101549.91
2019-03-18T19:36:34.565Z,101543.14
2019-03-18T19:39:04.957Z,101541.45
2019-03-18T19:41:33.976Z,101556.19
2019-03-18T19:44:03.101Z,101554.51
2019-03-18T19:46:32.116Z,101555.33
2019-03-18T19:49:01.189Z,101566.25
2019-03-18T19:51:30.218Z,101558.23
2019-03-18T19:53:59.373Z,101571.28
2019-03-18T19:56:28.413Z,101577.59
2019-03-18T19:58:57.514Z,101576.76
2019-03-18T20:01:26.523Z,101589.81
2019-03-18T20:03:55.467Z,101592.34
2019-03-18T20:06:24.534Z,101604.55
2019-03-18T20:08:53.551Z,101601.54
2019-03-18T20:11:22.559Z,101614.61
2019-03-18T20:13:51.966Z,101603.66
2019-03-18T20:16:21.105Z,101607.92
2019-03-18T20:18:50.515Z,101616.37
2019-03-18T20:21:19.569Z,101620.09
2019-03-18T20:24:00.090Z,101623.95
2019-03-18T20:26:19.698Z,101617.69
2019-03-18T20:28:48.766Z,101622.30
2019-03-18T20:31:25.729Z,101632.41
2019-03-18T20:33:48.981Z,101634.08
2019-03-18T20:36:18.063Z,101639.06
2019-03-18T20:38:47.027Z,101653.44
2019-03-18T20:41:16.136Z,101654.70
2019-03-18T20:43:45.146Z,101653.87
2019-03-18T20:46:14.209Z,101650.92
2019-03-18T20:48:43.227Z,101662.77
2019-03-18T20:51:12.249Z,101663.98
2019-03-18T20:53:41.220Z,101669.49
2019-03-18T20:56:10.224Z,101673.69
2019-03-18T20:58:39.278Z,101671.16
2019-03-18T21:01:08.350Z,101672.00
2019-03-18T21:03:37.426Z,101679.98
2019-03-18T21:06:06.573Z,101682.94
2019-03-18T21:08:35.626Z,101690.09
2019-03-18T21:11:04.678Z,101685.88
2019-03-18T21:13:34.010Z,101696.33
2019-03-18T21:16:03.163Z,101697.28
2019-03-18T21:18:32.175Z,101710.67
2019-03-18T21:21:01.214Z,101714.53
2019-03-18T21:23:30.269Z,101717.96
2019-03-18T21:25:59.277Z,101719.17
2019-03-18T21:28:28.306Z,101706.56
2019-03-18T21:30:57.409Z,101720.84
2019-03-18T21:33:26.421Z,101722.53
2019-03-18T21:35:55.899Z,101725.84
2019-03-18T21:38:25.031Z,101727.16
2019-03-18T21:40:54.129Z,101732.97
2019-03-18T21:43:23.154Z,101729.19
2019-03-18T21:45:52.164Z,101732.52
2019-03-18T21:48:21.219Z,101735.08
2019-03-18T21:50:50.238Z,101738.39
2019-03-18T21:53:19.232Z,101738.31
2019-03-18T21:55:48.229Z,101739.14
2019-03-18T21:58:17.291Z,101742.53
2019-03-18T22:00:46.310Z,101747.14
2019-03-18T22:03:15.358Z,101754.70
2019-03-18T22:05:44.510Z,101766.05
2019-03-18T22:08:13.423Z,101754.60
2019-03-18T22:10:42.539Z,101765.94
2019-03-18T22:13:11.614Z,101768.86
2019-03-18T22:15:40.629Z,101767.16
2019-03-18T22:18:09.682Z,101762.55
2019-03-18T22:20:38.790Z,101761.23
2019-03-18T22:23:07.844Z,101765.45
2019-03-18T22:25:36.854Z,101770.11
2019-03-18T22:28:05.916Z,101772.58
2019-03-18T22:30:35.012Z,101764.56
2019-03-18T22:33:04.115Z,101765.84
2019-03-18T22:35:33.120Z,101777.20
2019-03-18T22:38:02.138Z,101774.22
2019-03-18T22:40:31.187Z,101778.42
2019-03-18T22:43:00.205Z,101770.39
2019-03-18T22:45:29.173Z,101782.63
2019-03-18T22:47:58.233Z,101785.13
2019-03-18T22:50:27.242Z,101781.80
2019-03-18T22:52:56.181Z,101786.00
2019-03-18T22:55:25.233Z,101780.05
2019-03-18T22:57:54.153Z,101794.35
2019-03-18T23:00:46.220Z,101797.27
2019-03-18T23:03:15.366Z,101786.75
2019-03-18T23:05:44.375Z,101796.03
2019-03-18T23:08:13.827Z,101804.45
2019-03-18T23:10:42.839Z,101813.21
2019-03-18T23:13:11.960Z,101817.87
2019-03-18T23:15:41.395Z,101822.01
2019-03-18T23:18:10.403Z,101827.91
2019-03-18T23:20:39.423Z,101831.67
2019-03-18T23:23:08.481Z,101830.02
2019-03-18T23:25:37.490Z,101831.70
2019-03-18T23:28:06.536Z,101837.19
2019-03-18T23:30:35.582Z,101836.70
2019-03-18T23:33:04.658Z,101841.33
2019-03-18T23:35:33.711Z,101851.81
2019-03-18T23:38:02.778Z,101848.40
2019-03-18T23:40:31.709Z,101850.86
2019-03-18T23:43:00.719Z,101847.50
2019-03-18T23:45:29.785Z,101844.08
2019-03-18T23:47:58.834Z,101853.72
2019-03-18T23:50:27.823Z,101846.99
2019-03-18T23:52:56.842Z,101844.84
2019-03-18T23:55:25.854Z,101849.47
2019-03-18T23:57:54.871Z,101842.68
